createdAt,value
2019-02-15T00:00:39.979Z,23.87
2019-02-15T00:03:09.783Z,21.70
2019-02-15T00:05:39.319Z,21.00
2019-02-15T00:08:21.131Z,18.43
2019-02-15T00:10:50.531Z,20.07
2019-02-15T00:13:19.957Z,21.50
2019-02-15T00:15:49.328Z,19.37
2019-02-15T00:18:56.323Z,21.17
2019-02-15T00:21:28.790Z,25.43
2019-02-15T00:23:58.289Z,23.43
2019-02-15T00:26:27.697Z,21.23
2019-02-15T00:28:57.234Z,17.80
2019-02-15T00:31:26.635Z,18.33
2019-02-15T00:33:56.161Z,18.50
2019-02-15T00:36:25.587Z,19.67
2019-02-15T00:38:54.976Z,16.37
2019-02-15T00:41:24.370Z,19.30
2019-02-15T00:43:53.786Z,21.20
2019-02-15T00:46:45.359Z,17.40
2019-02-15T00:49:32.604Z,20.13
2019-02-15T00:52:12.169Z,15.07
2019-02-15T00:55:00.674Z,19.87
2019-02-15T00:57:52.308Z,19.43
2019-02-15T01:00:33.938Z,16.30
2019-02-15T01:03:32.191Z,17.83
2019-02-15T01:06:11.077Z,20.30
2019-02-15T01:08:59.598Z,15.30
2019-02-15T01:11:32.538Z,16.30
2019-02-15T01:14:01.943Z,18.53
2019-02-15T01:16:31.414Z,17.40
2019-02-15T01:19:00.818Z,15.53
2019-02-15T01:21:30.310Z,17.63
2019-02-15T01:23:59.716Z,17.93
2019-02-15T01:26:36.131Z,17.87
2019-02-15T01:29:18.027Z,18.23
2019-02-15T01:32:02.394Z,17.50
2019-02-15T01:34:57.399Z,14.80
2019-02-15T01:37:44.593Z,15.93
2019-02-15T01:40:33.339Z,16.43
2019-02-15T01:43:16.191Z,18.00
2019-02-15T01:45:52.285Z,15.73
2019-02-15T01:48:21.712Z,16.37
2019-02-15T01:50:51.153Z,15.23
2019-02-15T01:53:20.559Z,16.80
2019-02-15T01:55:49.973Z,16.03
2019-02-15T01:58:19.379Z,15.93
2019-02-15T02:00:48.779Z,16.40
2019-02-15T02:03:18.177Z,16.00
2019-02-15T02:05:47.579Z,15.20
2019-02-15T02:08:22.701Z,22.10
2019-02-15T02:10:52.137Z,17.50
2019-02-15T02:13:21.529Z,15.83
2019-02-15T02:15:51.117Z,15.10
2019-02-15T02:18:20.533Z,19.93
2019-02-15T02:20:49.952Z,15.17
2019-02-15T02:23:19.427Z,13.37
2019-02-15T02:25:48.846Z,17.37
2019-02-15T02:28:18.260Z,15.83
2019-02-15T02:30:47.717Z,15.30
2019-02-15T02:33:17.096Z,17.57
2019-02-15T02:35:46.586Z,17.67
2019-02-15T02:38:15.984Z,17.80
2019-02-15T02:40:45.461Z,17.27
2019-02-15T02:43:14.935Z,16.43
2019-02-15T02:45:44.334Z,14.40
2019-02-15T02:48:13.800Z,16.80
2019-02-15T02:50:43.210Z,16.40
2019-02-15T02:53:12.623Z,12.30
2019-02-15T02:55:42.064Z,17.03
2019-02-15T02:58:11.757Z,13.83
2019-02-15T03:00:41.494Z,17.87
2019-02-15T03:03:11.019Z,13.80
2019-02-15T03:05:40.451Z,19.60
2019-02-15T03:08:09.840Z,18.17
2019-02-15T03:10:39.254Z,18.93
2019-02-15T03:13:08.670Z,15.13
2019-02-15T03:15:38.086Z,14.67
2019-02-15T03:18:07.481Z,17.93
2019-02-15T03:20:36.879Z,15.60
2019-02-15T03:23:06.324Z,18.57
2019-02-15T03:25:35.715Z,14.37
2019-02-15T03:28:05.187Z,14.87
2019-02-15T03:30:34.592Z,13.80
2019-02-15T03:33:04.001Z,14.13
2019-02-15T03:35:33.559Z,14.83
2019-02-15T03:38:24.762Z,14.60
2019-02-15T03:40:57.217Z,11.53
2019-02-15T03:43:26.627Z,10.30
2019-02-15T03:45:56.102Z,12.30
2019-02-15T03:48:25.502Z,10.27
2019-02-15T03:50:54.902Z,14.33
2019-02-15T03:53:24.399Z,15.43
2019-02-15T03:55:53.946Z,13.80
2019-02-15T03:58:23.443Z,12.57
2019-02-15T04:00:53.209Z,14.13
2019-02-15T04:03:22.665Z,14.17
2019-02-15T04:05:52.063Z,14.90
2019-02-15T04:08:21.477Z,13.83
2019-02-15T04:10:50.930Z,14.07
2019-02-15T04:13:20.809Z,14.03
2019-02-15T04:15:50.266Z,12.20
2019-02-15T04:18:19.674Z,13.37
2019-02-15T04:20:49.152Z,11.33
2019-02-15T04:23:18.580Z,15.40
2019-02-15T04:25:48.013Z,12.83
2019-02-15T04:28:17.703Z,14.80
2019-02-15T04:30:47.102Z,11.07
2019-02-15T04:33:16.522Z,14.47
2019-02-15T04:35:45.988Z,14.33
2019-02-15T04:38:15.582Z,15.23
2019-02-15T04:40:45.082Z,17.27
2019-02-15T04:43:14.576Z,14.43
2019-02-15T04:45:43.980Z,13.00
2019-02-15T04:48:13.408Z,16.23
2019-02-15T04:50:42.807Z,12.60
2019-02-15T04:53:12.224Z,15.90
2019-02-15T04:55:41.638Z,12.57
2019-02-15T04:58:11.038Z,15.77
2019-02-15T05:00:40.413Z,15.00
2019-02-15T05:03:09.875Z,11.97
2019-02-15T05:05:39.262Z,16.77
2019-02-15T05:08:08.658Z,18.63
2019-02-15T05:10:38.053Z,15.23
2019-02-15T05:13:07.486Z,14.50
2019-02-15T05:15:36.931Z,15.23
2019-02-15T05:18:06.358Z,20.33
2019-02-15T05:20:35.810Z,13.97
2019-02-15T05:23:05.260Z,14.03
2019-02-15T05:25:34.756Z,15.53
2019-02-15T05:28:04.268Z,16.20
2019-02-15T05:30:33.670Z,20.80
2019-02-15T05:33:03.062Z,16.57
2019-02-15T05:35:32.465Z,12.70
2019-02-15T05:38:01.846Z,18.07
2019-02-15T05:40:31.453Z,12.87
2019-02-15T05:43:00.941Z,13.87
2019-02-15T05:45:30.351Z,14.90
2019-02-15T05:48:00.041Z,12.70
2019-02-15T05:50:29.533Z,18.67
2019-02-15T05:52:58.926Z,17.57
2019-02-15T05:55:28.361Z,12.93
2019-02-15T05:57:57.760Z,20.27
2019-02-15T06:00:36.692Z,13.40
2019-02-15T06:02:58.268Z,13.87
2019-02-15T06:05:27.683Z,15.60
2019-02-15T06:07:57.292Z,14.70
2019-02-15T06:10:26.726Z,15.40
2019-02-15T06:12:56.200Z,15.70
2019-02-15T06:15:25.695Z,13.60
2019-02-15T06:17:55.102Z,19.07
2019-02-15T06:20:25.806Z,13.60
2019-02-15T06:22:55.194Z,18.37
2019-02-15T06:25:24.625Z,13.47
2019-02-15T06:27:54.036Z,13.27
2019-02-15T06:30:23.598Z,12.70
2019-02-15T06:32:53.062Z,15.57
2019-02-15T06:35:22.614Z,14.77
2019-02-15T06:37:52.186Z,19.73
2019-02-15T06:40:21.587Z,14.87
2019-02-15T06:42:51.015Z,18.70
2019-02-15T06:45:24.636Z,13.87
2019-02-15T06:47:51.603Z,13.50
2019-02-15T06:50:21.038Z,13.20
2019-02-15T06:52:50.495Z,15.53
2019-02-15T06:55:19.909Z,17.00
2019-02-15T06:57:49.463Z,15.07
2019-02-15T07:00:36.767Z,14.07
2019-02-15T07:03:19.603Z,14.73
2019-02-15T07:05:49.049Z,18.80
2019-02-15T07:08:18.541Z,16.57
2019-02-15T07:10:48.059Z,16.13
2019-02-15T07:13:17.501Z,20.33
2019-02-15T07:15:46.987Z,20.40
2019-02-15T07:18:16.475Z,16.73
2019-02-15T07:20:46.203Z,19.23
2019-02-15T07:23:15.725Z,16.47
2019-02-15T07:25:45.297Z,16.03
2019-02-15T07:28:14.730Z,15.80
2019-02-15T07:30:44.149Z,16.43
2019-02-15T07:33:13.695Z,15.50
2019-02-15T07:35:43.116Z,17.50
2019-02-15T07:38:12.541Z,14.27
2019-02-15T07:40:41.967Z,19.43
2019-02-15T07:43:11.369Z,21.43
2019-02-15T07:45:42.769Z,17.27
2019-02-15T07:48:11.940Z,15.20
2019-02-15T07:50:41.408Z,17.17
2019-02-15T07:53:10.818Z,15.67
2019-02-15T07:55:40.210Z,13.70
2019-02-15T07:58:09.652Z,20.30
2019-02-15T08:00:39.048Z,17.17
2019-02-15T08:03:08.455Z,15.73
2019-02-15T08:05:37.939Z,22.17
2019-02-15T08:08:07.351Z,21.80
2019-02-15T08:10:36.759Z,18.53
2019-02-15T08:13:06.234Z,15.43
2019-02-15T08:15:36.490Z,20.20
2019-02-15T08:18:06.015Z,18.73
2019-02-15T08:20:35.406Z,14.47
2019-02-15T08:23:04.860Z,15.90
2019-02-15T08:25:34.300Z,15.80
2019-02-15T08:28:03.713Z,22.50
2019-02-15T08:30:33.502Z,22.20
2019-02-15T08:33:02.993Z,16.33
2019-02-15T08:35:32.429Z,15.97
2019-02-15T08:38:01.848Z,18.20
2019-02-15T08:40:31.349Z,16.10
2019-02-15T08:43:00.817Z,16.20
2019-02-15T08:45:30.455Z,15.70
2019-02-15T08:47:59.946Z,21.80
2019-02-15T08:50:29.421Z,16.87
2019-02-15T08:52:58.949Z,17.90
2019-02-15T08:55:28.391Z,15.17
2019-02-15T08:57:57.829Z,15.83
2019-02-15T09:00:27.215Z,19.97
2019-02-15T09:02:56.933Z,17.20
2019-02-15T09:05:26.370Z,16.53
2019-02-15T09:07:55.859Z,17.23
2019-02-15T09:10:25.251Z,18.40
2019-02-15T09:12:54.741Z,19.03
2019-02-15T09:15:24.287Z,15.67
2019-02-15T09:17:53.735Z,20.87
2019-02-15T09:20:23.189Z,24.37
2019-02-15T09:22:52.678Z,15.90
2019-02-15T09:25:22.146Z,18.53
2019-02-15T09:28:13.902Z,15.00
2019-02-15T09:30:45.275Z,21.27
2019-02-15T09:33:14.816Z,13.80
2019-02-15T09:35:44.612Z,20.23
2019-02-15T09:38:14.050Z,17.97
2019-02-15T09:40:43.454Z,19.03
2019-02-15T09:43:12.969Z,19.93
2019-02-15T09:45:42.506Z,15.80
2019-02-15T09:48:11.901Z,20.53
2019-02-15T09:50:41.968Z,16.70
2019-02-15T09:53:11.360Z,17.50
2019-02-15T09:55:40.903Z,17.50
2019-02-15T09:58:10.378Z,16.47
2019-02-15T10:00:39.852Z,15.40
2019-02-15T10:03:09.343Z,16.37
2019-02-15T10:05:38.789Z,19.77
2019-02-15T10:08:08.224Z,18.23
2019-02-15T10:10:37.633Z,18.93
2019-02-15T10:13:07.077Z,17.97
2019-02-15T10:15:36.575Z,21.63
2019-02-15T10:18:06.107Z,17.23
2019-02-15T10:20:35.586Z,21.67
2019-02-15T10:23:05.030Z,20.23
2019-02-15T10:25:34.781Z,18.27
2019-02-15T10:28:04.348Z,18.90
2019-02-15T10:30:34.017Z,21.53
2019-02-15T10:33:03.507Z,20.27
2019-02-15T10:35:33.132Z,20.10
2019-02-15T10:38:02.549Z,21.50
2019-02-15T10:40:32.017Z,23.07
2019-02-15T10:43:01.413Z,17.27
2019-02-15T10:45:30.877Z,18.37
2019-02-15T10:48:00.401Z,19.57
2019-02-15T10:50:29.818Z,17.07
2019-02-15T10:52:59.273Z,17.43
2019-02-15T10:55:28.679Z,16.27
2019-02-15T10:57:58.415Z,20.23
2019-02-15T11:00:28.278Z,15.30
2019-02-15T11:02:57.690Z,17.90
2019-02-15T11:05:27.146Z,17.37
2019-02-15T11:07:56.710Z,20.13
2019-02-15T11:10:26.119Z,15.40
2019-02-15T11:12:55.602Z,19.73
2019-02-15T11:15:25.140Z,19.37
2019-02-15T11:17:54.566Z,14.73
2019-02-15T11:20:24.410Z,16.47
2019-02-15T11:22:53.824Z,16.77
2019-02-15T11:25:23.282Z,18.67
2019-02-15T11:27:52.903Z,24.77
2019-02-15T11:30:22.536Z,16.30
2019-02-15T11:32:52.002Z,16.97
2019-02-15T11:35:21.454Z,15.47
2019-02-15T11:37:50.933Z,18.67
2019-02-15T11:40:20.351Z,17.53
2019-02-15T11:42:49.802Z,17.53
2019-02-15T11:45:19.261Z,16.37
2019-02-15T11:47:48.789Z,19.00
2019-02-15T11:50:18.287Z,19.00
2019-02-15T11:52:47.757Z,19.50
2019-02-15T11:55:17.241Z,18.00
2019-02-15T11:57:46.651Z,15.47
2019-02-15T12:00:22.507Z,16.43
2019-02-15T12:02:50.483Z,16.73
2019-02-15T12:05:19.907Z,19.67
2019-02-15T12:07:49.493Z,16.73
2019-02-15T12:10:19.071Z,22.60
2019-02-15T12:12:48.490Z,18.03
2019-02-15T12:15:17.996Z,15.40
2019-02-15T12:17:47.475Z,17.17
2019-02-15T12:20:16.953Z,16.63
2019-02-15T12:22:46.434Z,19.47
2019-02-15T12:25:15.838Z,19.00
2019-02-15T12:27:45.249Z,14.13
2019-02-15T12:30:14.995Z,22.13
2019-02-15T12:32:44.406Z,13.47
2019-02-15T12:35:13.997Z,15.30
2019-02-15T12:37:43.433Z,16.13
2019-02-15T12:40:13.561Z,11.60
2019-02-15T12:42:43.002Z,15.40
2019-02-15T12:45:12.763Z,15.60
2019-02-15T12:47:42.270Z,14.80
2019-02-15T12:50:13.182Z,18.03
2019-02-15T12:52:42.589Z,14.27
2019-02-15T12:55:12.089Z,14.97
2019-02-15T12:57:47.694Z,15.60
2019-02-15T13:00:17.098Z,14.30
2019-02-15T13:02:46.521Z,13.63
2019-02-15T13:05:15.994Z,12.90
2019-02-15T13:07:45.414Z,14.03
2019-02-15T13:10:18.136Z,14.93
2019-02-15T13:12:47.603Z,10.83
2019-02-15T13:15:16.998Z,13.73
2019-02-15T13:17:46.469Z,15.30
2019-02-15T13:20:15.905Z,15.67
2019-02-15T13:22:45.522Z,13.00
2019-02-15T13:25:15.009Z,13.47
2019-02-15T13:27:44.559Z,13.67
2019-02-15T13:30:14.084Z,13.93
2019-02-15T13:32:43.607Z,13.80
2019-02-15T13:35:13.727Z,16.83
2019-02-15T13:37:43.169Z,16.17
2019-02-15T13:40:12.711Z,13.50
2019-02-15T13:42:42.261Z,12.73
2019-02-15T13:45:15.467Z,13.90
2019-02-15T13:47:44.902Z,11.63
2019-02-15T13:50:14.401Z,11.03
2019-02-15T13:52:43.897Z,14.60
2019-02-15T13:55:13.473Z,12.60
2019-02-15T13:57:43.153Z,13.50
2019-02-15T14:00:12.922Z,14.30
2019-02-15T14:02:42.399Z,12.87
2019-02-15T14:05:12.167Z,12.23
2019-02-15T14:07:41.727Z,11.67
2019-02-15T14:10:11.237Z,11.03
2019-02-15T14:12:40.765Z,10.00
2019-02-15T14:15:10.374Z,12.23
2019-02-15T14:17:45.333Z,9.43
2019-02-15T14:20:11.416Z,10.50
2019-02-15T14:22:40.821Z,9.80
2019-02-15T14:25:10.372Z,14.20
2019-02-15T14:27:39.908Z,12.43
2019-02-15T14:30:10.191Z,13.70
2019-02-15T14:32:39.692Z,7.70
2019-02-15T14:35:09.518Z,11.37
2019-02-15T14:37:39.082Z,11.50
2019-02-15T14:40:09.298Z,9.47
2019-02-15T14:42:38.874Z,13.87
2019-02-15T14:45:09.430Z,11.03
2019-02-15T14:47:38.894Z,9.93
2019-02-15T14:50:08.602Z,8.67
2019-02-15T14:52:38.085Z,10.33
2019-02-15T14:55:07.732Z,10.23
2019-02-15T14:57:37.267Z,11.90
2019-02-15T15:00:08.750Z,10.27
2019-02-15T15:02:38.164Z,9.40
2019-02-15T15:05:08.069Z,13.27
2019-02-15T15:07:37.497Z,12.97
2019-02-15T15:10:08.319Z,11.33
2019-02-15T15:12:37.803Z,11.60
2019-02-15T15:15:08.487Z,10.73
2019-02-15T15:17:37.980Z,15.60
2019-02-15T15:20:09.241Z,13.27
2019-02-15T15:22:38.759Z,12.07
2019-02-15T15:25:09.424Z,8.50
2019-02-15T15:27:39.082Z,7.73
2019-02-15T15:30:10.039Z,7.83
2019-02-15T15:32:39.707Z,13.73
2019-02-15T15:35:09.272Z,10.03
2019-02-15T15:37:38.687Z,7.97
2019-02-15T15:40:09.487Z,9.43
2019-02-15T15:42:39.012Z,12.17
2019-02-15T15:45:09.384Z,9.40
2019-02-15T15:47:38.832Z,15.20
2019-02-15T15:50:09.207Z,11.47
2019-02-15T15:52:38.764Z,15.73
2019-02-15T15:55:09.167Z,14.73
2019-02-15T15:57:38.712Z,18.40
2019-02-15T16:00:10.004Z,11.83
2019-02-15T16:02:39.434Z,13.10
2019-02-15T16:05:09.545Z,10.93
2019-02-15T16:07:39.012Z,14.33
2019-02-15T16:10:09.868Z,12.10
2019-02-15T16:12:39.353Z,19.20
2019-02-15T16:15:09.717Z,12.03
2019-02-15T16:17:39.130Z,12.73
2019-02-15T16:20:09.522Z,22.87
2019-02-15T16:22:38.969Z,21.00
2019-02-15T16:25:08.699Z,16.33
2019-02-15T16:27:38.208Z,18.73
2019-02-15T16:30:09.388Z,21.00
2019-02-15T16:32:38.874Z,23.90
2019-02-15T16:35:08.616Z,28.33
2019-02-15T16:37:38.034Z,23.23
2019-02-15T16:40:09.030Z,26.20
2019-02-15T16:42:38.418Z,16.03
2019-02-15T16:45:09.650Z,24.23
2019-02-15T16:47:39.174Z,20.43
2019-02-15T16:50:09.006Z,19.30
2019-02-15T16:52:38.430Z,14.57
2019-02-15T16:55:12.888Z,24.53
2019-02-15T16:57:39.690Z,12.27
2019-02-15T17:00:09.758Z,27.97
2019-02-15T17:02:39.268Z,19.23
2019-02-15T17:05:08.755Z,19.20
2019-02-15T17:07:38.316Z,19.27
2019-02-15T17:10:08.144Z,30.37
2019-02-15T17:12:37.642Z,31.57
2019-02-15T17:15:08.059Z,43.00
2019-02-15T17:17:37.687Z,49.97
2019-02-15T17:20:07.607Z,29.17
2019-02-15T17:22:37.127Z,26.23
2019-02-15T17:25:08.032Z,19.83
2019-02-15T17:27:37.533Z,21.67
2019-02-15T17:30:07.741Z,27.27
2019-02-15T17:32:37.186Z,21.17
2019-02-15T17:35:07.715Z,12.53
2019-02-15T17:37:37.213Z,17.43
2019-02-15T17:40:08.045Z,16.43
2019-02-15T17:42:37.487Z,21.63
2019-02-15T17:45:07.718Z,23.23
2019-02-15T17:47:37.116Z,22.10
2019-02-15T17:50:07.178Z,16.67
2019-02-15T17:52:36.596Z,17.73
2019-02-15T17:55:06.111Z,18.77
2019-02-15T17:57:35.601Z,17.50
2019-02-15T18:00:06.204Z,24.57
2019-02-15T18:02:35.638Z,12.03
2019-02-15T18:05:05.498Z,8.93
2019-02-15T18:07:35.069Z,15.60
2019-02-15T18:10:04.677Z,15.53
2019-02-15T18:12:34.134Z,14.37
2019-02-15T18:15:03.704Z,18.37
2019-02-15T18:17:33.090Z,14.80
2019-02-15T18:20:02.574Z,12.90
2019-02-15T18:22:31.990Z,13.53
2019-02-15T18:25:01.407Z,12.23
2019-02-15T18:27:30.881Z,19.30
2019-02-15T18:30:00.411Z,13.70
2019-02-15T18:32:30.027Z,17.47
2019-02-15T18:34:59.427Z,17.37
2019-02-15T18:37:28.836Z,13.80
2019-02-15T18:39:58.262Z,17.10
2019-02-15T18:42:27.868Z,17.73
2019-02-15T18:44:57.284Z,33.40
2019-02-15T18:47:26.791Z,17.57
2019-02-15T18:49:56.211Z,21.07
2019-02-15T18:52:25.710Z,21.60
2019-02-15T18:54:55.160Z,12.80
2019-02-15T18:57:24.736Z,18.03
2019-02-15T18:59:54.215Z,23.37
2019-02-15T19:02:23.719Z,26.77
2019-02-15T19:04:53.327Z,29.90
2019-02-15T19:07:22.833Z,21.10
2019-02-15T19:09:52.273Z,33.10
2019-02-15T19:12:21.781Z,24.77
2019-02-15T19:14:51.242Z,23.63
2019-02-15T19:17:20.700Z,35.70
2019-02-15T19:19:50.164Z,47.47
2019-02-15T19:22:19.619Z,36.70
2019-02-15T19:24:49.225Z,26.40
2019-02-15T19:27:18.627Z,24.30
2019-02-15T19:29:48.394Z,24.07
2019-02-15T19:32:18.047Z,44.00
2019-02-15T19:34:47.732Z,28.77
2019-02-15T19:37:17.320Z,27.67
2019-02-15T19:39:46.827Z,23.43
2019-02-15T19:42:19.545Z,22.87
2019-02-15T19:44:49.026Z,28.27
2019-02-15T19:47:18.558Z,21.87
2019-02-15T19:49:48.034Z,24.97
2019-02-15T19:52:17.448Z,25.63
2019-02-15T19:54:47.082Z,29.43
2019-02-15T19:57:16.563Z,21.57
2019-02-15T19:59:53.479Z,23.83
2019-02-15T20:02:17.200Z,21.37
2019-02-15T20:04:46.731Z,22.63
2019-02-15T20:07:16.193Z,22.30
2019-02-15T20:09:45.627Z,25.73
2019-02-15T20:12:15.046Z,25.33
2019-02-15T20:14:44.587Z,22.60
2019-02-15T20:17:14.040Z,19.90
2019-02-15T20:19:48.791Z,22.70
2019-02-15T20:22:14.662Z,27.37
2019-02-15T20:24:44.101Z,25.13
2019-02-15T20:27:13.522Z,26.67
2019-02-15T20:29:49.203Z,21.87
2019-02-15T20:32:14.032Z,17.57
2019-02-15T20:34:45.341Z,16.47
2019-02-15T20:37:14.706Z,16.53
2019-02-15T20:39:44.226Z,22.67
2019-02-15T20:42:13.937Z,21.00
2019-02-15T20:44:43.415Z,16.07
2019-02-15T20:47:12.861Z,15.80
2019-02-15T20:49:42.306Z,19.77
2019-02-15T20:52:11.734Z,31.80
2019-02-15T20:54:41.211Z,14.70
2019-02-15T20:57:10.659Z,16.50
2019-02-15T20:59:40.415Z,16.30
2019-02-15T21:02:09.911Z,16.73
2019-02-15T21:04:39.569Z,17.10
2019-02-15T21:07:09.073Z,14.90
2019-02-15T21:09:38.474Z,17.20
2019-02-15T21:12:08.008Z,21.67
2019-02-15T21:14:37.963Z,22.20
2019-02-15T21:17:07.235Z,21.03
2019-02-15T21:19:36.665Z,24.50
2019-02-15T21:22:06.135Z,25.23
2019-02-15T21:24:35.588Z,20.63
2019-02-15T21:27:05.002Z,16.43
2019-02-15T21:29:34.421Z,18.43
2019-02-15T21:32:03.858Z,20.10
2019-02-15T21:34:33.543Z,22.33
2019-02-15T21:37:03.062Z,21.27
2019-02-15T21:39:32.472Z,20.87
2019-02-15T21:42:01.908Z,19.60
2019-02-15T21:44:31.332Z,19.80
2019-02-15T21:47:00.775Z,25.57
2019-02-15T21:49:30.218Z,18.50
2019-02-15T21:51:59.790Z,21.13
2019-02-15T21:54:29.222Z,28.40
2019-02-15T21:56:58.770Z,21.63
2019-02-15T21:59:30.165Z,18.93
2019-02-15T22:01:59.577Z,22.07
2019-02-15T22:04:28.982Z,16.80
2019-02-15T22:06:58.454Z,19.70
2019-02-15T22:09:27.899Z,19.27
2019-02-15T22:11:57.328Z,21.20
2019-02-15T22:14:26.764Z,17.97
2019-02-15T22:16:56.169Z,19.47
2019-02-15T22:19:25.598Z,24.63
2019-02-15T22:21:55.010Z,19.77
2019-02-15T22:24:24.459Z,25.03
2019-02-15T22:26:53.857Z,22.63
2019-02-15T22:29:23.322Z,24.00
2019-02-15T22:31:52.757Z,21.43
2019-02-15T22:34:22.189Z,19.13
2019-02-15T22:36:51.607Z,22.10
2019-02-15T22:39:21.073Z,18.87
2019-02-15T22:41:50.983Z,21.37
2019-02-15T22:44:20.399Z,17.63
2019-02-15T22:46:49.809Z,21.70
2019-02-15T22:49:19.231Z,23.70
2019-02-15T22:51:48.649Z,16.87
2019-02-15T22:54:18.165Z,16.03
2019-02-15T22:56:47.580Z,17.80
2019-02-15T22:59:16.969Z,16.73
2019-02-15T23:01:46.504Z,19.23
2019-02-15T23:04:16.030Z,16.07
2019-02-15T23:06:45.446Z,20.17
2019-02-15T23:09:25.455Z,24.93
2019-02-15T23:11:54.873Z,27.13
2019-02-15T23:14:24.288Z,23.67
2019-02-15T23:16:53.820Z,24.43
2019-02-15T23:19:23.230Z,19.57
2019-02-15T23:21:52.649Z,17.17
2019-02-15T23:24:22.058Z,21.83
2019-02-15T23:26:51.466Z,19.77
2019-02-15T23:29:20.898Z,21.37
2019-02-15T23:31:51.138Z,20.43
2019-02-15T23:34:20.617Z,19.47
2019-02-15T23:36:50.010Z,15.37
2019-02-15T23:39:19.450Z,16.03
2019-02-15T23:41:48.855Z,14.90
2019-02-15T23:44:18.262Z,14.70
2019-02-15T23:46:47.650Z,15.07
2019-02-15T23:49:17.082Z,12.97
2019-02-15T23:51:46.521Z,17.97
2019-02-15T23:54:15.986Z,18.07
2019-02-15T23:56:45.566Z,15.60
2019-02-15T23:59:15.017Z,20.57
